createdAt,value
2018-09-15T00:00:59.310Z,30.73
2018-09-15T00:03:28.698Z,29.93
2018-09-15T00:05:58.218Z,29.80
2018-09-15T00:08:27.916Z,26.93
2018-09-15T00:10:57.031Z,25.67
2018-09-15T00:13:26.378Z,26.73
2018-09-15T00:15:55.584Z,28.40
2018-09-15T00:18:24.732Z,26.50
2018-09-15T00:20:53.931Z,24.53
2018-09-15T00:23:23.087Z,24.90
2018-09-15T00:25:52.321Z,19.97
2018-09-15T00:28:21.623Z,24.57
2018-09-15T00:30:50.944Z,17.70
2018-09-15T00:33:19.729Z,15.33
2018-09-15T00:35:48.927Z,22.93
2018-09-15T00:38:19.621Z,19.13
2018-09-15T00:40:48.758Z,19.60
2018-09-15T00:43:17.883Z,21.23
2018-09-15T00:45:48.154Z,30.93
2018-09-15T00:48:17.260Z,21.63
2018-09-15T00:50:46.362Z,20.47
2018-09-15T00:53:15.498Z,18.87
2018-09-15T00:55:44.594Z,22.10
2018-09-15T00:58:13.723Z,15.70
2018-09-15T01:00:43.446Z,16.80
2018-09-15T01:03:12.562Z,18.53
2018-09-15T01:05:41.657Z,16.60
2018-09-15T01:08:10.826Z,15.37
2018-09-15T01:10:39.938Z,15.57
2018-09-15T01:13:09.117Z,17.53
2018-09-15T01:15:38.294Z,15.80
2018-09-15T01:18:07.466Z,16.60
2018-09-15T01:20:38.286Z,17.10
2018-09-15T01:23:07.526Z,17.97
2018-09-15T01:25:36.748Z,15.77
2018-09-15T01:28:06.034Z,15.47
2018-09-15T01:30:34.815Z,16.30
2018-09-15T01:33:03.967Z,15.03
2018-09-15T01:35:33.122Z,18.33
2018-09-15T01:38:02.234Z,16.33
2018-09-15T01:40:31.406Z,15.13
2018-09-15T01:43:00.662Z,18.47
2018-09-15T01:45:29.818Z,15.57
2018-09-15T01:47:58.933Z,16.77
2018-09-15T01:50:28.043Z,17.20
2018-09-15T01:52:57.228Z,16.40
2018-09-15T01:55:26.378Z,13.30
2018-09-15T01:57:56.093Z,13.57
2018-09-15T02:00:25.390Z,16.33
2018-09-15T02:02:54.563Z,13.90
2018-09-15T02:05:23.706Z,14.20
2018-09-15T02:07:52.821Z,12.97
2018-09-15T02:10:21.938Z,17.67
2018-09-15T02:12:51.046Z,13.67
2018-09-15T02:15:20.602Z,16.90
2018-09-15T02:17:50.324Z,17.80
2018-09-15T02:20:19.454Z,19.80
2018-09-15T02:22:48.675Z,14.20
2018-09-15T02:25:17.821Z,15.80
2018-09-15T02:27:46.962Z,16.43
2018-09-15T02:30:17.327Z,26.47
2018-09-15T02:32:46.185Z,22.13
2018-09-15T02:35:15.754Z,21.23
2018-09-15T02:37:44.913Z,19.50
2018-09-15T02:40:14.062Z,18.10
2018-09-15T02:42:43.898Z,16.47
2018-09-15T02:45:13.025Z,17.00
2018-09-15T02:47:42.490Z,16.20
2018-09-15T02:50:11.999Z,17.50
2018-09-15T02:52:41.122Z,20.70
2018-09-15T02:55:10.397Z,16.70
2018-09-15T02:57:39.586Z,19.13
2018-09-15T03:00:09.718Z,19.43
2018-09-15T03:02:38.889Z,17.53
2018-09-15T03:05:08.003Z,25.57
2018-09-15T03:07:37.320Z,15.17
2018-09-15T03:10:06.482Z,14.00
2018-09-15T03:12:35.585Z,15.33
2018-09-15T03:15:05.018Z,16.60
2018-09-15T03:17:34.167Z,14.17
2018-09-15T03:20:03.381Z,14.80
2018-09-15T03:22:32.467Z,16.17
2018-09-15T03:25:01.627Z,16.60
2018-09-15T03:27:30.774Z,12.93
2018-09-15T03:30:00.214Z,14.80
2018-09-15T03:32:29.425Z,15.80
2018-09-15T03:34:58.950Z,18.37
2018-09-15T03:37:28.222Z,17.83
2018-09-15T03:39:57.019Z,15.97
2018-09-15T03:42:26.174Z,20.07
2018-09-15T03:44:55.337Z,14.47
2018-09-15T03:47:24.506Z,21.33
2018-09-15T03:49:54.438Z,19.00
2018-09-15T03:52:23.608Z,15.70
2018-09-15T03:54:53.418Z,17.00
2018-09-15T03:57:22.539Z,17.83
2018-09-15T03:59:51.653Z,13.70
2018-09-15T04:02:20.750Z,18.90
2018-09-15T04:04:50.597Z,19.57
2018-09-15T04:07:19.733Z,15.73
2018-09-15T04:09:48.865Z,12.70
2018-09-15T04:12:17.986Z,13.37
2018-09-15T04:14:47.509Z,17.47
2018-09-15T04:17:16.645Z,16.77
2018-09-15T04:19:46.630Z,20.47
2018-09-15T04:22:15.793Z,17.47
2018-09-15T04:24:44.990Z,21.10
2018-09-15T04:27:14.134Z,18.70
2018-09-15T04:29:43.265Z,17.17
2018-09-15T04:32:12.402Z,17.43
2018-09-15T04:34:41.980Z,17.13
2018-09-15T04:37:10.821Z,17.40
2018-09-15T04:39:39.945Z,19.27
2018-09-15T04:42:09.111Z,15.73
2018-09-15T04:44:38.358Z,15.70
2018-09-15T04:47:07.481Z,17.97
2018-09-15T04:49:36.626Z,17.43
2018-09-15T04:52:05.758Z,20.47
2018-09-15T04:54:34.947Z,17.10
2018-09-15T04:57:04.122Z,19.77
2018-09-15T04:59:33.250Z,16.73
2018-09-15T05:02:02.387Z,19.40
2018-09-15T05:04:32.222Z,16.50
2018-09-15T05:07:01.337Z,19.10
2018-09-15T05:09:30.490Z,17.40
2018-09-15T05:11:59.637Z,18.63
2018-09-15T05:14:29.248Z,18.27
2018-09-15T05:16:58.389Z,20.17
2018-09-15T05:19:27.501Z,19.63
2018-09-15T05:21:56.928Z,17.57
2018-09-15T05:24:26.045Z,23.33
2018-09-15T05:26:55.266Z,19.63
2018-09-15T05:29:24.309Z,22.03
2018-09-15T05:31:53.438Z,18.77
2018-09-15T05:34:22.902Z,20.20
2018-09-15T05:36:52.042Z,21.63
2018-09-15T05:39:21.186Z,20.30
2018-09-15T05:41:50.836Z,18.23
2018-09-15T05:44:20.008Z,17.50
2018-09-15T05:46:49.153Z,22.53
2018-09-15T05:49:18.283Z,26.47
2018-09-15T05:51:47.457Z,21.93
2018-09-15T05:54:16.638Z,18.67
2018-09-15T05:56:45.801Z,23.90
2018-09-15T05:59:14.937Z,20.30
2018-09-15T06:01:44.167Z,26.37
2018-09-15T06:04:13.242Z,20.40
2018-09-15T06:06:42.409Z,19.40
2018-09-15T06:09:12.547Z,19.33
2018-09-15T06:11:42.286Z,16.23
2018-09-15T06:14:11.455Z,24.00
2018-09-15T06:16:40.615Z,22.23
2018-09-15T06:19:10.022Z,17.97
2018-09-15T06:21:39.121Z,19.63
2018-09-15T06:24:08.338Z,15.57
2018-09-15T06:26:38.285Z,21.70
2018-09-15T06:29:08.166Z,21.57
2018-09-15T06:31:37.478Z,15.80
2018-09-15T06:34:06.986Z,17.37
2018-09-15T06:36:36.113Z,16.20
2018-09-15T06:39:08.673Z,19.70
2018-09-15T06:41:38.266Z,22.27
2018-09-15T06:44:07.515Z,16.70
2018-09-15T06:46:36.623Z,15.37
2018-09-15T06:49:05.754Z,16.13
2018-09-15T06:51:34.863Z,20.93
2018-09-15T06:54:04.702Z,22.27
2018-09-15T06:56:33.845Z,18.53
2018-09-15T06:59:02.974Z,20.23
2018-09-15T07:01:32.094Z,17.03
2018-09-15T07:04:02.490Z,15.77
2018-09-15T07:06:31.617Z,22.10
2018-09-15T07:09:00.760Z,19.20
2018-09-15T07:11:29.917Z,18.53
2018-09-15T07:13:59.029Z,17.63
2018-09-15T07:16:28.165Z,21.60
2018-09-15T07:18:57.343Z,25.37
2018-09-15T07:21:27.222Z,18.60
2018-09-15T07:23:56.444Z,24.10
2018-09-15T07:26:25.642Z,16.03
2018-09-15T07:28:54.770Z,21.33
2018-09-15T07:31:23.899Z,19.10
2018-09-15T07:33:53.085Z,23.33
2018-09-15T07:36:22.965Z,17.50
2018-09-15T07:38:52.118Z,19.30
2018-09-15T07:41:21.276Z,20.10
2018-09-15T07:43:50.486Z,19.43
2018-09-15T07:46:19.618Z,25.80
2018-09-15T07:48:48.798Z,19.80
2018-09-15T07:51:18.762Z,20.43
2018-09-15T07:53:47.974Z,25.23
2018-09-15T07:56:17.125Z,20.90
2018-09-15T07:58:46.298Z,20.87
2018-09-15T08:01:15.506Z,22.70
2018-09-15T08:03:44.313Z,20.23
2018-09-15T08:06:13.433Z,18.57
2018-09-15T08:08:42.594Z,19.43
2018-09-15T08:11:11.793Z,16.93
2018-09-15T08:13:40.879Z,23.80
2018-09-15T08:16:10.662Z,20.00
2018-09-15T08:18:39.781Z,16.70
2018-09-15T08:21:08.922Z,23.80
2018-09-15T08:23:38.720Z,20.40
2018-09-15T08:26:07.954Z,20.50
2018-09-15T08:28:37.778Z,20.10
2018-09-15T08:31:07.413Z,17.60
2018-09-15T08:33:36.573Z,19.20
2018-09-15T08:36:05.739Z,16.10
2018-09-15T08:38:34.878Z,15.93
2018-09-15T08:41:04.001Z,15.10
2018-09-15T08:43:33.942Z,18.83
2018-09-15T08:46:03.769Z,20.80
2018-09-15T08:48:33.868Z,21.67
2018-09-15T08:51:03.201Z,15.07
2018-09-15T08:53:32.034Z,13.97
2018-09-15T08:56:01.158Z,14.57
2018-09-15T08:58:30.981Z,17.03
2018-09-15T09:01:00.126Z,21.03
2018-09-15T09:03:29.233Z,15.97
2018-09-15T09:05:59.954Z,18.93
2018-09-15T09:08:29.094Z,16.80
2018-09-15T09:10:58.905Z,19.50
2018-09-15T09:13:28.084Z,18.50
2018-09-15T09:15:57.445Z,15.60
2018-09-15T09:18:26.652Z,16.73
2018-09-15T09:20:55.842Z,15.73
2018-09-15T09:23:25.370Z,16.20
2018-09-15T09:25:55.418Z,16.20
2018-09-15T09:28:24.478Z,14.07
2018-09-15T09:30:53.638Z,12.50
2018-09-15T09:33:22.746Z,12.23
2018-09-15T09:35:52.590Z,11.40
2018-09-15T09:38:21.936Z,12.40
2018-09-15T09:40:51.290Z,11.10
2018-09-15T09:43:20.844Z,17.83
2018-09-15T09:45:50.666Z,15.23
2018-09-15T09:48:20.031Z,13.67
2018-09-15T09:50:49.592Z,16.50
2018-09-15T09:53:18.730Z,14.40
2018-09-15T09:55:47.929Z,15.53
2018-09-15T09:58:17.096Z,20.40
2018-09-15T10:00:51.562Z,19.90
2018-09-15T10:03:20.792Z,18.83
2018-09-15T10:05:50.886Z,16.60
2018-09-15T10:08:20.726Z,18.13
2018-09-15T10:10:50.025Z,20.43
2018-09-15T10:13:19.750Z,13.50
2018-09-15T10:15:49.503Z,18.70
2018-09-15T10:18:18.640Z,16.23
2018-09-15T10:20:47.875Z,19.83
2018-09-15T10:23:17.014Z,16.70
2018-09-15T10:25:46.154Z,16.70
2018-09-15T10:28:16.090Z,17.33
2018-09-15T10:30:45.945Z,18.60
2018-09-15T10:33:15.083Z,18.83
2018-09-15T10:35:44.244Z,17.20
2018-09-15T10:38:13.382Z,22.63
2018-09-15T10:40:42.553Z,12.10
2018-09-15T10:43:11.686Z,17.17
2018-09-15T10:45:40.814Z,15.00
2018-09-15T10:48:09.965Z,16.00
2018-09-15T10:50:39.090Z,14.07
2018-09-15T10:53:08.320Z,13.07
2018-09-15T10:55:37.934Z,16.10
2018-09-15T10:58:07.067Z,17.50
2018-09-15T11:00:36.299Z,17.73
2018-09-15T11:03:05.821Z,16.83
2018-09-15T11:05:34.937Z,13.97
2018-09-15T11:08:05.110Z,12.90
2018-09-15T11:10:35.928Z,19.00
2018-09-15T11:13:06.006Z,11.47
2018-09-15T11:15:41.955Z,13.80
2018-09-15T11:18:11.786Z,17.43
2018-09-15T11:20:41.031Z,10.67
2018-09-15T11:23:10.299Z,10.37
2018-09-15T11:25:40.133Z,12.03
2018-09-15T11:28:09.477Z,14.93
2018-09-15T11:30:38.632Z,16.10
2018-09-15T11:33:08.530Z,13.83
2018-09-15T11:35:37.706Z,10.87
2018-09-15T11:38:07.373Z,16.73
2018-09-15T11:40:37.262Z,11.27
2018-09-15T11:43:08.301Z,10.87
2018-09-15T11:45:37.921Z,12.10
2018-09-15T11:48:07.851Z,11.67
2018-09-15T11:50:36.963Z,9.70
2018-09-15T11:53:06.629Z,12.93
2018-09-15T11:55:37.081Z,12.73
2018-09-15T11:58:07.218Z,13.47
2018-09-15T12:00:39.749Z,11.20
2018-09-15T12:03:09.806Z,11.83
2018-09-15T12:05:39.822Z,11.33
2018-09-15T12:08:09.088Z,10.90
2018-09-15T12:10:38.825Z,15.10
2018-09-15T12:13:07.708Z,13.20
2018-09-15T12:15:36.964Z,10.70
2018-09-15T12:18:06.098Z,13.17
2018-09-15T12:20:35.231Z,8.70
2018-09-15T12:23:04.778Z,11.83
2018-09-15T12:25:35.692Z,15.47
2018-09-15T12:28:06.941Z,11.13
2018-09-15T12:30:36.694Z,9.77
2018-09-15T12:33:05.923Z,8.67
2018-09-15T12:35:35.093Z,9.40
2018-09-15T12:38:04.570Z,8.87
2018-09-15T12:40:33.693Z,10.27
2018-09-15T12:43:02.875Z,10.37
2018-09-15T12:45:32.071Z,11.27
2018-09-15T12:48:01.198Z,7.33
2018-09-15T12:50:30.678Z,9.67
2018-09-15T12:52:59.817Z,7.67
2018-09-15T12:55:28.926Z,9.00
2018-09-15T12:57:58.302Z,9.50
2018-09-15T13:00:27.454Z,13.13
2018-09-15T13:02:56.610Z,10.50
2018-09-15T13:05:25.725Z,8.67
2018-09-15T13:07:55.377Z,9.60
2018-09-15T13:10:24.950Z,10.07
2018-09-15T13:12:54.809Z,8.00
2018-09-15T13:15:25.795Z,8.57
2018-09-15T13:17:55.543Z,9.97
2018-09-15T13:20:24.236Z,8.37
2018-09-15T13:22:53.429Z,9.23
2018-09-15T13:25:22.609Z,6.97
2018-09-15T13:27:51.889Z,9.83
2018-09-15T13:30:21.096Z,10.30
2018-09-15T13:32:50.633Z,7.87
2018-09-15T13:35:20.165Z,8.00
2018-09-15T13:37:49.952Z,8.87
2018-09-15T13:40:19.267Z,7.03
2018-09-15T13:42:48.429Z,8.03
2018-09-15T13:45:17.558Z,5.70
2018-09-15T13:47:48.093Z,7.90
2018-09-15T13:50:17.194Z,8.77
2018-09-15T13:52:46.415Z,8.90
2018-09-15T13:55:16.195Z,9.70
2018-09-15T13:57:45.965Z,6.03
2018-09-15T14:00:15.105Z,8.20
2018-09-15T14:02:44.833Z,6.40
2018-09-15T14:05:14.960Z,9.10
2018-09-15T14:07:44.231Z,8.70
2018-09-15T14:10:19.011Z,6.00
2018-09-15T14:12:43.057Z,11.83
2018-09-15T14:15:12.489Z,7.77
2018-09-15T14:17:42.114Z,9.60
2018-09-15T14:20:11.482Z,5.57
2018-09-15T14:22:40.533Z,8.10
2018-09-15T14:25:10.310Z,6.70
2018-09-15T14:27:39.445Z,6.97
2018-09-15T14:30:08.622Z,7.40
2018-09-15T14:32:37.789Z,6.00
2018-09-15T14:35:06.962Z,6.10
2018-09-15T14:37:36.105Z,5.60
2018-09-15T14:40:05.893Z,6.43
2018-09-15T14:42:35.033Z,6.00
2018-09-15T14:45:04.170Z,7.80
2018-09-15T14:47:33.781Z,6.47
2018-09-15T14:50:03.094Z,6.90
2018-09-15T14:52:33.025Z,8.23
2018-09-15T14:55:02.159Z,5.40
2018-09-15T14:57:31.290Z,8.40
2018-09-15T15:00:00.415Z,5.73
2018-09-15T15:02:30.386Z,7.23
2018-09-15T15:04:59.801Z,7.13
2018-09-15T15:07:29.471Z,4.93
2018-09-15T15:09:58.610Z,7.33
2018-09-15T15:12:27.729Z,6.63
2018-09-15T15:14:56.886Z,4.80
2018-09-15T15:17:26.640Z,7.20
2018-09-15T15:19:56.494Z,8.70
2018-09-15T15:22:25.893Z,6.20
2018-09-15T15:24:55.855Z,8.30
2018-09-15T15:27:25.165Z,11.27
2018-09-15T15:29:54.649Z,7.73
2018-09-15T15:32:23.785Z,5.77
2018-09-15T15:34:53.018Z,12.13
2018-09-15T15:37:22.150Z,10.80
2018-09-15T15:39:52.009Z,10.83
2018-09-15T15:42:20.820Z,6.93
2018-09-15T15:44:49.939Z,5.23
2018-09-15T15:47:19.976Z,6.13
2018-09-15T15:49:49.342Z,7.20
2018-09-15T15:52:18.717Z,9.63
2018-09-15T15:54:48.258Z,7.53
2018-09-15T15:57:17.404Z,5.60
2018-09-15T15:59:46.574Z,5.43
2018-09-15T16:02:15.736Z,5.43
2018-09-15T16:04:44.920Z,6.90
2018-09-15T16:07:14.048Z,6.87
2018-09-15T16:09:43.225Z,5.60
2018-09-15T16:12:12.346Z,5.60
2018-09-15T16:14:41.539Z,13.27
2018-09-15T16:17:10.959Z,8.03
2018-09-15T16:19:40.514Z,4.60
2018-09-15T16:22:10.004Z,7.37
2018-09-15T16:24:39.838Z,8.20
2018-09-15T16:27:09.033Z,7.90
2018-09-15T16:29:38.513Z,6.40
2018-09-15T16:32:07.658Z,6.93
2018-09-15T16:34:36.805Z,8.30
2018-09-15T16:37:06.773Z,7.20
2018-09-15T16:39:35.893Z,8.97
2018-09-15T16:42:05.008Z,9.93
2018-09-15T16:44:34.142Z,7.13
2018-09-15T16:47:03.329Z,8.00
2018-09-15T16:49:32.626Z,7.97
2018-09-15T16:52:01.762Z,7.73
2018-09-15T16:54:30.925Z,7.27
2018-09-15T16:57:00.154Z,7.93
2018-09-15T16:59:29.259Z,7.00
2018-09-15T17:01:58.394Z,7.67
2018-09-15T17:04:27.541Z,8.23
2018-09-15T17:06:56.765Z,7.47
2018-09-15T17:09:25.924Z,9.63
2018-09-15T17:11:55.093Z,11.00
2018-09-15T17:14:24.229Z,10.63
2018-09-15T17:16:53.401Z,6.73
2018-09-15T17:19:22.761Z,8.20
2018-09-15T17:21:51.938Z,7.30
2018-09-15T17:24:21.069Z,9.43
2018-09-15T17:26:50.193Z,7.30
2018-09-15T17:29:19.413Z,7.73
2018-09-15T17:31:48.564Z,8.63
2018-09-15T17:34:17.828Z,10.53
2018-09-15T17:36:47.002Z,8.23
2018-09-15T17:39:16.874Z,6.37
2018-09-15T17:41:46.030Z,7.93
2018-09-15T17:44:15.153Z,7.73
2018-09-15T17:46:44.422Z,15.27
2018-09-15T17:49:13.577Z,8.03
2018-09-15T17:51:42.701Z,19.70
2018-09-15T17:54:11.842Z,11.50
2018-09-15T17:56:40.970Z,11.73
2018-09-15T17:59:10.093Z,10.60
2018-09-15T18:01:39.254Z,11.30
2018-09-15T18:04:08.586Z,9.73
2018-09-15T18:06:37.721Z,11.73
2018-09-15T18:09:08.621Z,9.20
2018-09-15T18:11:37.761Z,10.83
2018-09-15T18:14:07.596Z,14.30
2018-09-15T18:16:36.723Z,10.27
2018-09-15T18:19:05.918Z,35.93
2018-09-15T18:21:35.153Z,8.00
2018-09-15T18:24:04.294Z,11.37
2018-09-15T18:26:34.150Z,9.90
2018-09-15T18:29:03.328Z,12.83
2018-09-15T18:31:32.611Z,10.40
2018-09-15T18:34:01.726Z,9.93
2018-09-15T18:36:30.989Z,8.57
2018-09-15T18:39:01.505Z,10.33
2018-09-15T18:41:30.473Z,8.97
2018-09-15T18:43:59.610Z,8.73
2018-09-15T18:46:29.214Z,7.90
2018-09-15T18:48:58.366Z,9.80
2018-09-15T18:51:27.514Z,10.10
2018-09-15T18:53:56.621Z,12.43
2018-09-15T18:56:26.038Z,15.43
2018-09-15T18:58:55.103Z,14.23
2018-09-15T19:01:24.323Z,10.63
2018-09-15T19:03:53.878Z,13.60
2018-09-15T19:06:23.009Z,15.87
2018-09-15T19:08:52.278Z,10.17
2018-09-15T19:11:21.505Z,9.03
2018-09-15T19:13:50.744Z,8.83
2018-09-15T19:16:19.945Z,10.30
2018-09-15T19:18:49.070Z,8.20
2018-09-15T19:21:18.214Z,8.13
2018-09-15T19:23:47.353Z,11.70
2018-09-15T19:26:16.533Z,12.63
2018-09-15T19:28:45.654Z,7.20
2018-09-15T19:31:14.862Z,10.37
2018-09-15T19:33:44.631Z,8.33
2018-09-15T19:36:13.770Z,11.63
2018-09-15T19:38:42.930Z,11.13
2018-09-15T19:41:12.502Z,9.33
2018-09-15T19:43:41.630Z,9.40
2018-09-15T19:46:10.826Z,15.27
2018-09-15T19:48:39.995Z,16.10
2018-09-15T19:51:09.137Z,10.77
2018-09-15T19:53:38.310Z,16.93
2018-09-15T19:56:07.440Z,11.90
2018-09-15T19:58:36.662Z,7.83
2018-09-15T20:01:05.976Z,9.10
2018-09-15T20:03:35.114Z,8.63
2018-09-15T20:06:05.508Z,16.53
2018-09-15T20:08:34.538Z,8.13
2018-09-15T20:11:03.657Z,10.60
2018-09-15T20:13:33.463Z,9.33
2018-09-15T20:16:01.118Z,9.60
2018-09-15T20:18:30.193Z,9.33
2018-09-15T20:20:57.933Z,14.40
2018-09-15T20:23:27.097Z,12.67
2018-09-15T20:25:56.261Z,11.67
2018-09-15T20:28:25.466Z,12.50
2018-09-15T20:30:54.618Z,12.50
2018-09-15T20:33:23.770Z,10.67
2018-09-15T20:35:54.671Z,10.73
2018-09-15T20:38:23.753Z,8.53
2018-09-15T20:40:52.945Z,18.17
2018-09-15T20:43:22.677Z,10.47
2018-09-15T20:45:52.467Z,14.33
2018-09-15T20:48:22.548Z,10.83
2018-09-15T20:50:52.537Z,9.43
2018-09-15T20:53:22.218Z,10.97
2018-09-15T20:55:51.977Z,15.87
2018-09-15T20:58:21.409Z,11.93
2018-09-15T21:00:51.666Z,13.77
2018-09-15T21:03:21.427Z,11.50
2018-09-15T21:05:51.209Z,13.17
2018-09-15T21:08:20.069Z,17.93
2018-09-15T21:10:49.230Z,16.00
2018-09-15T21:13:19.138Z,16.00
2018-09-15T21:15:48.328Z,10.77
2018-09-15T21:18:18.910Z,16.80
2018-09-15T21:20:48.501Z,15.00
2018-09-15T21:23:17.388Z,18.40
2018-09-15T21:25:46.509Z,14.47
2018-09-15T21:28:16.358Z,12.80
2018-09-15T21:30:45.509Z,13.40
2018-09-15T21:33:15.407Z,15.17
2018-09-15T21:35:44.574Z,16.17
2018-09-15T21:38:14.516Z,13.03
2018-09-15T21:40:44.401Z,13.37
2018-09-15T21:43:13.647Z,12.13
2018-09-15T21:45:43.297Z,14.00
2018-09-15T21:48:12.423Z,12.73
2018-09-15T21:50:41.584Z,14.03
2018-09-15T21:53:11.562Z,13.13
2018-09-15T21:55:40.898Z,18.00
2018-09-15T21:58:10.518Z,16.60
2018-09-15T22:00:40.519Z,17.03
2018-09-15T22:03:09.850Z,17.77
2018-09-15T22:05:39.413Z,14.37
2018-09-15T22:08:15.906Z,16.40
2018-09-15T22:10:45.397Z,16.40
2018-09-15T22:13:15.903Z,18.03
2018-09-15T22:15:45.385Z,17.53
2018-09-15T22:18:14.735Z,17.10
2018-09-15T22:20:43.534Z,16.83
2018-09-15T22:23:12.709Z,20.13
2018-09-15T22:25:41.865Z,23.07
2018-09-15T22:28:10.993Z,15.87
2018-09-15T22:30:40.101Z,20.07
2018-09-15T22:33:09.285Z,19.10
2018-09-15T22:35:38.406Z,15.07
2018-09-15T22:38:07.554Z,18.20
2018-09-15T22:40:39.040Z,16.03
2018-09-15T22:43:08.166Z,18.67
2018-09-15T22:45:36.890Z,19.13
2018-09-15T22:48:06.065Z,23.03
2018-09-15T22:50:35.242Z,21.50
2018-09-15T22:53:04.410Z,17.30
2018-09-15T22:55:33.549Z,21.60
2018-09-15T22:58:02.914Z,20.13
2018-09-15T23:00:32.054Z,16.33
2018-09-15T23:03:01.241Z,16.80
2018-09-15T23:05:30.438Z,18.40
2018-09-15T23:08:00.065Z,19.67
2018-09-15T23:10:29.194Z,17.20
2018-09-15T23:12:58.334Z,21.10
2018-09-15T23:15:27.445Z,21.10
2018-09-15T23:17:56.589Z,20.20
2018-09-15T23:20:25.783Z,18.70
2018-09-15T23:22:55.459Z,20.37
2018-09-15T23:25:24.581Z,24.00
2018-09-15T23:27:54.086Z,17.30
2018-09-15T23:30:23.298Z,25.73
2018-09-15T23:32:52.445Z,20.57
2018-09-15T23:35:21.614Z,20.37
2018-09-15T23:37:50.757Z,21.87
2018-09-15T23:40:19.955Z,19.13
2018-09-15T23:42:49.137Z,20.87
2018-09-15T23:45:18.273Z,19.07
2018-09-15T23:47:47.014Z,20.47
2018-09-15T23:50:16.137Z,24.80
2018-09-15T23:52:45.453Z,21.37
2018-09-15T23:55:14.669Z,25.17
2018-09-15T23:57:43.822Z,23.20
